This is the latest recevied weather packets stored in our database for station/object K2ATL. If no packets are shown the sender has not sent any weather packets the latest 10 day(s).
| Time | Temp. | Humidity | Pressure | Rain* | Wind** | Luminosity | Snow |
|---|---|---|---|---|---|---|---|
| 1787933109 | 25° C | 74% | 1104.3 hPa | 0 mm | - | 786 W/m² | - |
| 1787932808 | 25° C | 71% | 1104.6 hPa | 0 mm | - | 778 W/m² | - |
| 1787932503 | 24.44° C | 74% | 1104.5 hPa | 0 mm | - | 762 W/m² | - |
| 1787932198 | 23.89° C | 79% | 1104.3 hPa | 0 mm | - | 749 W/m² | - |
| 1787931896 | 23.89° C | 74% | 1104.3 hPa | 0 mm | - | 737 W/m² | - |
| 1787931591 | 23.89° C | 73% | 1104.3 hPa | 0 mm | - | 727 W/m² | - |
| 1787931286 | 23.89° C | 74% | 1104.3 hPa | 0 mm | - | 709 W/m² | - |
| 1787930985 | 23.89° C | 79% | 1104.5 hPa | 0 mm | - | 698 W/m² | - |
| 1787930685 | 23.89° C | 81% | 1104.3 hPa | 0 mm | - | 682 W/m² | - |
| 1787930379 | 23.89° C | 79% | 1104.5 hPa | 0 mm | - | 671 W/m² | - |
| 1787930074 | 23.33° C | 81% | 1104.3 hPa | 0 mm | - | 650 W/m² | - |
| 1787929773 | 22.78° C | 81% | 1104.7 hPa | 0 mm | - | 642 W/m² | - |
| 1787929468 | 22.22° C | 81% | 1104.5 hPa | 0 mm | - | 615 W/m² | - |
| 1787929165 | 22.22° C | 80% | 1104.5 hPa | 0 mm | - | 589 W/m² | - |
| 1787928861 | 22.22° C | 86% | 1104.5 hPa | 0 mm | - | 567 W/m² | - |
| 1787928561 | 21.67° C | 89% | 1104.5 hPa | 0 mm | - | 447 W/m² | - |
| 1787928259 | 21.11° C | 89% | 1104.5 hPa | 0 mm | - | 512 W/m² | - |
| 1787927958 | 21.11° C | 91% | 1104.2 hPa | 0 mm | - | 474 W/m² | - |
| 1787927654 | 22.78° C | 92% | 1104.3 hPa | 0 mm | - | 121 W/m² | - |
| 1787927353 | 22.78° C | 91% | 1104.3 hPa | 0 mm | - | 121 W/m² | - |
| 1787927049 | 22.78° C | 92% | 1104.2 hPa | 0 mm | - | 110 W/m² | - |
| 1787926744 | 22.78° C | 92% | 1104.3 hPa | 0 mm | - | 118 W/m² | - |
| 1787926442 | 22.78° C | 91% | 1104.2 hPa | 0 mm | - | 112 W/m² | - |
| 1787926137 | 22.78° C | 90% | 1104.5 hPa | 0 mm | - | 108 W/m² | - |
| 1787925836 | 22.22° C | 92% | 1104.5 hPa | 0 mm | - | 202 W/m² | - |
* Rain latest hour (hover to see other rain measurements)
** Current wind speed in m/s (hover to see current wind gust speed)